createdAt,value
2023-07-23T00:28:31.721Z,1013.58
2023-07-23T00:57:10.698Z,1013.46
2023-07-23T01:26:00.970Z,1013.36
2023-07-23T01:54:35.933Z,1013.37
2023-07-23T02:23:22.029Z,1013.3
2023-07-23T02:52:10.259Z,1013.48
2023-07-23T03:20:45.305Z,1013.6
2023-07-23T03:49:40.372Z,1013.72
2023-07-23T04:18:27.817Z,1013.8
2023-07-23T04:47:13.586Z,1013.89
2023-07-23T05:15:54.438Z,1013.76
2023-07-23T05:44:42.565Z,1013.89
2023-07-23T06:13:36.172Z,1013.96
2023-07-23T06:42:22.898Z,1013.81
2023-07-23T07:11:40.429Z,1013.69
2023-07-23T07:40:29.547Z,1013.72
2023-07-23T08:08:59.172Z,1013.54
2023-07-23T08:37:34.125Z,1013.26
2023-07-23T09:06:22.630Z,1013.41
2023-07-23T10:03:26.713Z,1013.27
2023-07-23T10:31:52.894Z,1013.13
2023-07-23T10:59:59.556Z,1012.88
2023-07-23T11:28:25.672Z,1012.6
2023-07-23T11:56:55.980Z,1012.3
2023-07-23T12:25:18.657Z,1012.26
2023-07-23T12:54:20.298Z,1012.17
2023-07-23T13:22:18.413Z,1012.17
2023-07-23T13:50:52.695Z,1011.99
2023-07-23T14:19:00.885Z,1011.75
2023-07-23T14:47:35.008Z,1011.51
2023-07-23T15:16:06.299Z,1011.46
2023-07-23T15:44:44.537Z,1011.28
2023-07-23T16:13:05.335Z,1011.09
2023-07-23T16:41:42.637Z,1010.5
2023-07-23T17:10:13.577Z,1010.38
2023-07-23T18:07:14.373Z,1010.08
2023-07-23T18:35:43.403Z,1009.93
2023-07-23T19:04:07.487Z,1009.55
2023-07-23T19:32:31.943Z,1009.46
2023-07-23T20:00:50.172Z,1009.55
2023-07-23T20:29:22.496Z,1009.36
2023-07-23T20:57:46.776Z,1009.2
2023-07-23T21:26:08.527Z,1009.28
2023-07-23T21:54:48.402Z,1009.36
2023-07-23T22:23:07.486Z,1009.36
2023-07-23T22:51:54.175Z,1009.18
2023-07-23T23:20:38.268Z,1008.95
2023-07-23T23:49:22.550Z,1008.6
